createdAt,value
2022-10-20T00:00:41.586Z,1025.63
2022-10-20T00:01:45.910Z,1025.63
2022-10-20T00:02:49.963Z,1025.65
2022-10-20T00:03:54.102Z,1025.68
2022-10-20T00:04:58.315Z,1025.66
2022-10-20T00:06:02.544Z,1025.72
2022-10-20T00:07:06.711Z,1025.70
2022-10-20T00:08:10.913Z,1025.70
2022-10-20T00:09:15.176Z,1025.69
2022-10-20T00:10:19.340Z,1025.70
2022-10-20T00:11:23.616Z,1025.68
2022-10-20T00:12:27.753Z,1025.68
2022-10-20T00:13:31.958Z,1025.65
2022-10-20T00:14:36.086Z,1025.65
2022-10-20T00:15:40.276Z,1025.64
2022-10-20T00:16:44.466Z,1025.64
2022-10-20T00:17:48.630Z,1025.62
2022-10-20T00:18:52.793Z,1025.61
2022-10-20T00:19:56.970Z,1025.62
2022-10-20T00:21:01.234Z,1025.59
2022-10-20T00:22:05.393Z,1025.58
2022-10-20T00:23:09.609Z,1025.52
2022-10-20T00:24:13.812Z,1025.49
2022-10-20T00:25:17.987Z,1025.49
2022-10-20T00:26:22.173Z,1025.49
2022-10-20T00:27:26.381Z,1025.48
2022-10-20T00:28:30.522Z,1025.46
2022-10-20T00:29:34.730Z,1025.46
2022-10-20T00:30:38.919Z,1025.45
2022-10-20T00:31:43.100Z,1025.43
2022-10-20T00:32:47.277Z,1025.42
2022-10-20T00:33:51.481Z,1025.40
2022-10-20T00:34:55.650Z,1025.39
2022-10-20T00:35:59.898Z,1025.38
2022-10-20T00:37:04.041Z,1025.34
2022-10-20T00:38:08.288Z,1025.33
2022-10-20T00:39:12.383Z,1025.32
2022-10-20T00:40:16.564Z,1025.31
2022-10-20T00:41:20.780Z,1025.30
2022-10-20T00:42:24.965Z,1025.27
2022-10-20T00:43:29.178Z,1025.27
2022-10-20T00:44:33.349Z,1025.24
2022-10-20T00:45:37.525Z,1025.22
2022-10-20T00:46:41.729Z,1025.19
2022-10-20T00:48:50.048Z,1025.14
2022-10-20T00:49:54.248Z,1025.11
2022-10-20T00:50:58.448Z,1025.09
2022-10-20T00:52:02.644Z,1025.07
2022-10-20T00:53:06.857Z,1025.06
2022-10-20T00:54:11.058Z,1025.03
2022-10-20T00:55:15.236Z,1025.00
2022-10-20T00:56:19.392Z,1024.97
2022-10-20T00:57:23.637Z,1024.96
2022-10-20T00:58:27.891Z,1024.96
2022-10-20T00:59:32.030Z,1024.94
2022-10-20T01:00:36.235Z,1024.95
2022-10-20T01:01:40.547Z,1024.95
2022-10-20T01:02:44.615Z,1024.95
2022-10-20T01:03:48.798Z,1024.95
2022-10-20T01:04:52.957Z,1024.93
2022-10-20T01:05:57.148Z,1024.90
2022-10-20T01:07:01.353Z,1024.91
2022-10-20T01:08:05.611Z,1024.92
2022-10-20T01:09:09.858Z,1024.95
2022-10-20T01:10:13.931Z,1024.94
2022-10-20T01:11:18.141Z,1024.91
2022-10-20T01:12:22.432Z,1024.92
2022-10-20T01:13:26.557Z,1024.88
2022-10-20T01:14:30.833Z,1024.87
2022-10-20T01:15:35.070Z,1024.85
2022-10-20T01:16:39.182Z,1024.86
2022-10-20T01:17:43.437Z,1024.80
2022-10-20T01:18:47.594Z,1024.79
2022-10-20T01:19:51.775Z,1024.79
2022-10-20T01:20:56.018Z,1024.77
2022-10-20T01:22:00.114Z,1024.72
2022-10-20T01:23:04.313Z,1024.71
2022-10-20T01:24:08.589Z,1024.69
2022-10-20T01:25:12.738Z,1024.69
2022-10-20T01:26:17.022Z,1024.68
2022-10-20T01:27:21.173Z,1024.65
2022-10-20T01:28:25.337Z,1024.66
2022-10-20T01:29:29.558Z,1024.65
2022-10-20T01:30:33.763Z,1024.65
2022-10-20T01:31:37.986Z,1024.66
2022-10-20T01:32:42.143Z,1024.64
2022-10-20T01:33:46.362Z,1024.65
2022-10-20T01:34:52.941Z,1024.63
2022-10-20T01:35:54.577Z,1024.61
2022-10-20T01:36:58.885Z,1024.62
2022-10-20T01:38:03.038Z,1024.62
2022-10-20T01:39:07.227Z,1024.60
2022-10-20T01:40:11.419Z,1024.60
2022-10-20T01:41:15.635Z,1024.60
2022-10-20T01:42:19.779Z,1024.59
2022-10-20T01:43:23.958Z,1024.57
2022-10-20T01:44:28.194Z,1024.55
2022-10-20T01:45:32.330Z,1024.56
2022-10-20T01:46:36.509Z,1024.54
2022-10-20T01:47:40.700Z,1024.54
2022-10-20T01:48:44.818Z,1024.54
2022-10-20T01:49:50.005Z,1024.56
2022-10-20T01:50:53.771Z,1024.56
2022-10-20T01:51:57.896Z,1024.54
2022-10-20T01:53:02.078Z,1024.51
2022-10-20T01:54:06.239Z,1024.49
2022-10-20T01:55:10.423Z,1024.50
2022-10-20T01:56:14.572Z,1024.50
2022-10-20T01:57:18.763Z,1024.49
2022-10-20T01:58:22.967Z,1024.47
2022-10-20T01:59:27.180Z,1024.47
2022-10-20T02:00:34.354Z,1024.42
2022-10-20T02:01:37.587Z,1024.39
2022-10-20T02:02:41.689Z,1024.36
2022-10-20T02:03:45.843Z,1024.36
2022-10-20T02:04:50.014Z,1024.36
2022-10-20T02:05:54.170Z,1024.36
2022-10-20T02:06:58.343Z,1024.37
2022-10-20T02:08:02.480Z,1024.36
2022-10-20T02:09:06.688Z,1024.36
2022-10-20T02:10:10.888Z,1024.33
2022-10-20T02:11:15.047Z,1024.34
2022-10-20T02:12:19.207Z,1024.33
2022-10-20T02:13:23.385Z,1024.35
2022-10-20T02:14:27.531Z,1024.34
2022-10-20T02:15:31.774Z,1024.37
2022-10-20T02:16:35.967Z,1024.40
2022-10-20T02:17:40.094Z,1024.42
2022-10-20T02:18:44.372Z,1024.42
2022-10-20T02:19:48.545Z,1024.42
2022-10-20T02:20:52.669Z,1024.41
2022-10-20T02:21:56.865Z,1024.42
2022-10-20T02:23:01.038Z,1024.37
2022-10-20T02:24:05.200Z,1024.36
2022-10-20T02:25:09.375Z,1024.34
2022-10-20T02:26:13.502Z,1024.32
2022-10-20T02:27:17.863Z,1024.30
2022-10-20T02:28:21.988Z,1024.28
2022-10-20T02:29:26.289Z,1024.28
2022-10-20T02:30:30.401Z,1024.24
2022-10-20T02:31:34.573Z,1024.18
2022-10-20T02:32:39.256Z,1024.17
2022-10-20T02:33:42.979Z,1024.13
2022-10-20T02:34:47.146Z,1024.13
2022-10-20T02:35:51.413Z,1024.15
2022-10-20T02:36:55.513Z,1024.15
2022-10-20T02:37:59.728Z,1024.16
2022-10-20T02:39:03.976Z,1024.14
2022-10-20T02:40:11.179Z,1024.15
2022-10-20T02:41:14.368Z,1024.15
2022-10-20T02:42:18.532Z,1024.16
2022-10-20T02:43:22.730Z,1024.16
2022-10-20T02:44:26.906Z,1024.14
2022-10-20T02:45:31.053Z,1024.13
2022-10-20T02:46:35.242Z,1024.10
2022-10-20T02:47:39.713Z,1024.08
2022-10-20T02:48:43.689Z,1024.09
2022-10-20T02:49:47.848Z,1024.07
2022-10-20T02:50:52.023Z,1024.09
2022-10-20T02:51:56.234Z,1024.08
2022-10-20T02:53:00.408Z,1024.10
2022-10-20T02:54:04.588Z,1024.11
2022-10-20T02:55:08.832Z,1024.10
2022-10-20T02:56:13.013Z,1024.08
2022-10-20T02:57:20.252Z,1024.11
2022-10-20T02:58:23.519Z,1024.11
2022-10-20T02:59:27.750Z,1024.13
2022-10-20T03:00:31.955Z,1024.13
2022-10-20T03:01:36.164Z,1024.13
2022-10-20T03:02:40.276Z,1024.16
2022-10-20T03:03:44.558Z,1024.16
2022-10-20T03:04:48.746Z,1024.16
2022-10-20T03:05:52.886Z,1024.17
2022-10-20T03:06:57.008Z,1024.18
2022-10-20T03:08:01.235Z,1024.18
2022-10-20T03:09:05.422Z,1024.18
2022-10-20T03:10:09.566Z,1024.19
2022-10-20T03:11:13.834Z,1024.19
2022-10-20T03:12:18.072Z,1024.22
2022-10-20T03:13:22.268Z,1024.22
2022-10-20T03:14:26.362Z,1024.23
2022-10-20T03:15:30.592Z,1024.24
2022-10-20T03:16:34.777Z,1024.24
2022-10-20T03:17:39.314Z,1024.21
2022-10-20T03:18:43.203Z,1024.22
2022-10-20T03:19:47.370Z,1024.20
2022-10-20T03:20:51.582Z,1024.19
2022-10-20T03:21:55.659Z,1024.20
2022-10-20T03:22:59.885Z,1024.22
2022-10-20T03:24:04.104Z,1024.24
2022-10-20T03:25:08.159Z,1024.23
2022-10-20T03:26:12.386Z,1024.24
2022-10-20T03:27:16.565Z,1024.23
2022-10-20T03:28:20.841Z,1024.23
2022-10-20T03:29:25.068Z,1024.24
2022-10-20T03:30:29.170Z,1024.21
2022-10-20T03:31:33.408Z,1024.22
2022-10-20T03:32:37.885Z,1024.21
2022-10-20T03:33:41.725Z,1024.22
2022-10-20T03:34:45.918Z,1024.17
2022-10-20T03:35:50.172Z,1024.15
2022-10-20T03:36:54.321Z,1024.14
2022-10-20T03:37:58.508Z,1024.10
2022-10-20T03:39:02.689Z,1024.10
2022-10-20T03:40:06.888Z,1024.10
2022-10-20T03:41:11.017Z,1024.08
2022-10-20T03:42:15.209Z,1024.07
2022-10-20T03:43:19.404Z,1024.06
2022-10-20T03:44:23.566Z,1024.05
2022-10-20T03:45:27.731Z,1024.04
2022-10-20T03:46:31.952Z,1024.05
2022-10-20T03:47:36.113Z,1024.03
2022-10-20T03:48:40.344Z,1024.00
2022-10-20T03:49:44.467Z,1023.97
2022-10-20T03:50:48.675Z,1023.94
2022-10-20T03:51:52.831Z,1023.92
2022-10-20T03:52:56.897Z,1023.91
2022-10-20T03:54:01.165Z,1023.89
2022-10-20T03:55:05.359Z,1023.86
2022-10-20T03:56:09.597Z,1023.83
2022-10-20T03:57:13.693Z,1023.78
2022-10-20T03:58:17.931Z,1023.74
2022-10-20T03:59:23.518Z,1023.70
2022-10-20T04:00:26.249Z,1023.71
2022-10-20T04:01:30.682Z,1023.71
2022-10-20T04:02:35.032Z,1023.71
2022-10-20T04:03:38.833Z,1023.69
2022-10-20T04:04:43.061Z,1023.66
2022-10-20T04:05:47.261Z,1023.65
2022-10-20T04:06:51.418Z,1023.63
2022-10-20T04:07:55.602Z,1023.61
2022-10-20T04:08:59.929Z,1023.64
2022-10-20T04:10:03.996Z,1023.65
2022-10-20T04:11:08.177Z,1023.68
2022-10-20T04:12:12.354Z,1023.65
2022-10-20T04:13:16.483Z,1023.71
2022-10-20T04:14:20.697Z,1023.72
2022-10-20T04:15:24.862Z,1023.72
2022-10-20T04:16:29.130Z,1023.72
2022-10-20T04:17:33.462Z,1023.71
2022-10-20T04:18:40.515Z,1023.72
2022-10-20T04:19:43.705Z,1023.72
2022-10-20T04:20:47.903Z,1023.72
2022-10-20T04:21:52.062Z,1023.72
2022-10-20T04:22:56.204Z,1023.68
2022-10-20T04:24:00.512Z,1023.64
2022-10-20T04:25:04.625Z,1023.61
2022-10-20T04:26:08.877Z,1023.60
2022-10-20T04:27:13.035Z,1023.59
2022-10-20T04:28:17.306Z,1023.56
2022-10-20T04:29:21.391Z,1023.56
2022-10-20T04:30:25.577Z,1023.55
2022-10-20T04:31:29.763Z,1023.51
2022-10-20T04:32:33.836Z,1023.50
2022-10-20T04:33:38.096Z,1023.50
2022-10-20T04:34:42.232Z,1023.46
2022-10-20T04:35:46.477Z,1023.45
2022-10-20T04:36:50.570Z,1023.46
2022-10-20T04:37:54.761Z,1023.43
2022-10-20T04:38:58.949Z,1023.42
2022-10-20T04:40:03.114Z,1023.42
2022-10-20T04:41:07.319Z,1023.40
2022-10-20T04:42:11.459Z,1023.40
2022-10-20T04:43:15.689Z,1023.36
2022-10-20T04:44:19.842Z,1023.32
2022-10-20T04:45:24.017Z,1023.31
2022-10-20T04:46:28.278Z,1023.30
2022-10-20T04:47:32.437Z,1023.30
2022-10-20T04:48:36.606Z,1023.31
2022-10-20T04:49:40.786Z,1023.29
2022-10-20T04:50:44.981Z,1023.24
2022-10-20T04:51:49.164Z,1023.22
2022-10-20T04:52:53.308Z,1023.20
2022-10-20T04:53:57.546Z,1023.18
2022-10-20T04:55:01.698Z,1023.19
2022-10-20T04:56:05.892Z,1023.20
2022-10-20T04:57:10.059Z,1023.21
2022-10-20T04:58:14.243Z,1023.19
2022-10-20T04:59:18.438Z,1023.18
2022-10-20T05:00:22.637Z,1023.20
2022-10-20T05:01:26.878Z,1023.20
2022-10-20T05:02:30.945Z,1023.21
2022-10-20T05:03:35.158Z,1023.24
2022-10-20T05:04:39.332Z,1023.27
2022-10-20T05:05:43.585Z,1023.30
2022-10-20T05:06:47.676Z,1023.31
2022-10-20T05:07:52.883Z,1023.30
2022-10-20T05:08:56.643Z,1023.28
2022-10-20T05:10:00.859Z,1023.25
2022-10-20T05:11:04.977Z,1023.22
2022-10-20T05:12:09.298Z,1023.20
2022-10-20T05:13:13.441Z,1023.19
2022-10-20T05:14:17.580Z,1023.19
2022-10-20T05:15:21.749Z,1023.19
2022-10-20T05:16:25.998Z,1023.15
2022-10-20T05:17:30.096Z,1023.17
2022-10-20T05:18:34.317Z,1023.13
2022-10-20T05:19:38.616Z,1023.10
2022-10-20T05:21:07.204Z,1023.09
2022-10-20T05:21:46.987Z,1023.08
2022-10-20T05:22:51.067Z,1023.06
2022-10-20T05:23:55.269Z,1023.03
2022-10-20T05:25:12.787Z,1023.03
2022-10-20T05:26:03.666Z,1023.01
2022-10-20T05:27:07.893Z,1023.01
2022-10-20T05:28:12.088Z,1023.01
2022-10-20T05:29:16.245Z,1022.99
2022-10-20T05:30:20.390Z,1022.99
2022-10-20T05:31:24.560Z,1022.99
2022-10-20T05:32:28.759Z,1023.00
2022-10-20T05:33:32.892Z,1022.99
2022-10-20T05:34:37.080Z,1022.97
2022-10-20T05:35:41.246Z,1022.97
2022-10-20T05:36:45.496Z,1022.98
2022-10-20T05:37:49.615Z,1022.97
2022-10-20T05:38:53.787Z,1022.97
2022-10-20T05:39:57.943Z,1023.00
2022-10-20T05:41:02.124Z,1023.03
2022-10-20T05:42:06.312Z,1023.04
2022-10-20T05:43:10.511Z,1023.05
2022-10-20T05:44:14.688Z,1023.05
2022-10-20T05:45:18.834Z,1023.03
2022-10-20T05:46:22.997Z,1023.06
2022-10-20T05:47:27.122Z,1023.08
2022-10-20T05:48:31.320Z,1023.08
2022-10-20T05:49:35.500Z,1023.05
2022-10-20T05:50:39.745Z,1023.08
2022-10-20T05:51:43.879Z,1023.10
2022-10-20T05:52:48.062Z,1023.10
2022-10-20T05:53:52.223Z,1023.10
2022-10-20T05:54:56.384Z,1023.13
2022-10-20T05:56:00.596Z,1023.13
2022-10-20T05:57:04.769Z,1023.12
2022-10-20T05:58:08.929Z,1023.10
2022-10-20T05:59:13.082Z,1023.10
2022-10-20T06:00:17.198Z,1023.09
2022-10-20T06:01:21.710Z,1023.11
2022-10-20T06:02:25.594Z,1023.09
2022-10-20T06:03:29.757Z,1023.08
2022-10-20T06:04:33.988Z,1023.08
2022-10-20T06:05:38.122Z,1023.07
2022-10-20T06:06:42.324Z,1023.08
2022-10-20T06:07:46.462Z,1023.08
2022-10-20T06:08:50.698Z,1023.08
2022-10-20T06:09:54.813Z,1023.10
2022-10-20T06:10:58.973Z,1023.13
2022-10-20T06:12:03.207Z,1023.13
2022-10-20T06:13:07.296Z,1023.14
2022-10-20T06:14:11.480Z,1023.13
2022-10-20T06:15:15.659Z,1023.13
2022-10-20T06:16:19.848Z,1023.14
2022-10-20T06:17:23.961Z,1023.13
2022-10-20T06:18:28.143Z,1023.11
2022-10-20T06:19:32.319Z,1023.12
2022-10-20T06:20:36.602Z,1023.12
2022-10-20T06:22:44.845Z,1023.10
2022-10-20T06:23:49.005Z,1023.08
2022-10-20T06:24:53.087Z,1023.09
2022-10-20T06:25:57.341Z,1023.10
2022-10-20T06:27:01.504Z,1023.11
2022-10-20T06:28:05.649Z,1023.11
2022-10-20T06:29:09.829Z,1023.12
2022-10-20T06:30:13.997Z,1023.11
2022-10-20T06:31:18.196Z,1023.12
2022-10-20T06:32:22.328Z,1023.12
2022-10-20T06:33:26.522Z,1023.13
2022-10-20T06:34:30.728Z,1023.12
2022-10-20T06:35:34.870Z,1023.12
2022-10-20T06:36:38.973Z,1023.11
2022-10-20T06:37:43.266Z,1023.11
2022-10-20T06:38:47.363Z,1023.07
2022-10-20T06:39:51.531Z,1023.06
2022-10-20T06:40:55.797Z,1023.07
2022-10-20T06:41:59.922Z,1023.05
2022-10-20T06:43:04.119Z,1023.05
2022-10-20T06:44:08.289Z,1023.04
2022-10-20T06:45:14.445Z,1023.05
2022-10-20T06:46:19.625Z,1023.04
2022-10-20T06:47:22.902Z,1023.06
2022-10-20T06:48:27.043Z,1023.04
2022-10-20T06:49:31.228Z,1023.03
2022-10-20T06:50:35.411Z,1023.02
2022-10-20T06:51:39.605Z,1023.01
2022-10-20T06:52:43.759Z,1023.02
2022-10-20T06:53:47.923Z,1023.04
2022-10-20T06:54:52.080Z,1023.03
2022-10-20T06:55:56.250Z,1023.03
2022-10-20T06:57:00.425Z,1023.01
2022-10-20T06:58:04.623Z,1023.01
2022-10-20T06:59:08.779Z,1023.02
2022-10-20T07:00:12.941Z,1023.00
2022-10-20T07:01:17.114Z,1023.02
2022-10-20T07:02:21.238Z,1023.00
2022-10-20T07:03:25.413Z,1023.01
2022-10-20T07:04:29.677Z,1023.02
2022-10-20T07:05:33.813Z,1023.01
2022-10-20T07:06:37.987Z,1023.00
2022-10-20T07:07:42.147Z,1023.00
2022-10-20T07:08:46.413Z,1022.95
2022-10-20T07:09:50.481Z,1022.92
2022-10-20T07:10:54.723Z,1022.90
2022-10-20T07:11:58.892Z,1022.89
2022-10-20T07:13:03.170Z,1022.88
2022-10-20T07:14:07.276Z,1022.86
2022-10-20T07:15:11.519Z,1022.83
2022-10-20T07:16:15.648Z,1022.80
2022-10-20T07:17:19.848Z,1022.80
2022-10-20T07:18:23.997Z,1022.77
2022-10-20T07:19:28.163Z,1022.76
2022-10-20T07:20:32.335Z,1022.75
2022-10-20T07:21:38.432Z,1022.77
2022-10-20T07:22:40.684Z,1022.77
2022-10-20T07:23:44.870Z,1022.75
2022-10-20T07:24:49.096Z,1022.74
2022-10-20T07:25:53.216Z,1022.70
2022-10-20T07:26:57.432Z,1022.68
2022-10-20T07:28:01.629Z,1022.69
2022-10-20T07:29:05.793Z,1022.69
2022-10-20T07:30:09.983Z,1022.66
2022-10-20T07:31:14.153Z,1022.67
2022-10-20T07:32:18.360Z,1022.66
2022-10-20T07:33:22.629Z,1022.62
2022-10-20T07:34:27.811Z,1022.59
2022-10-20T07:35:33.968Z,1022.57
2022-10-20T07:36:37.198Z,1022.59
2022-10-20T07:37:41.412Z,1022.56
2022-10-20T07:38:45.561Z,1022.52
2022-10-20T07:39:49.739Z,1022.49
2022-10-20T07:40:55.029Z,1022.47
2022-10-20T07:41:58.067Z,1022.44
2022-10-20T07:43:02.257Z,1022.37
2022-10-20T07:44:06.460Z,1022.38
2022-10-20T07:45:10.664Z,1022.37
2022-10-20T07:46:14.861Z,1022.36
2022-10-20T07:47:19.032Z,1022.34
2022-10-20T07:48:23.194Z,1022.32
2022-10-20T07:49:44.277Z,1022.26
2022-10-20T07:50:31.652Z,1022.25
2022-10-20T07:51:35.877Z,1022.26
2022-10-20T07:52:40.077Z,1022.22
2022-10-20T07:53:44.240Z,1022.18
2022-10-20T07:54:48.399Z,1022.18
2022-10-20T07:55:52.595Z,1022.16
2022-10-20T07:56:56.852Z,1022.16
2022-10-20T07:58:00.992Z,1022.12
2022-10-20T07:59:05.152Z,1022.11
2022-10-20T08:00:09.386Z,1022.11
2022-10-20T08:01:13.591Z,1022.09
2022-10-20T08:02:17.885Z,1022.11
2022-10-20T08:03:21.985Z,1022.09
2022-10-20T08:04:26.184Z,1022.11
2022-10-20T08:05:30.355Z,1022.12
2022-10-20T08:06:34.592Z,1022.11
2022-10-20T08:07:38.806Z,1022.11
2022-10-20T08:08:43.016Z,1022.12
2022-10-20T08:09:47.208Z,1022.13
2022-10-20T08:10:51.427Z,1022.12
2022-10-20T08:11:56.069Z,1022.14
2022-10-20T08:12:59.948Z,1022.12
2022-10-20T08:14:04.007Z,1022.12
2022-10-20T08:15:08.235Z,1022.08
2022-10-20T08:16:12.406Z,1022.05
2022-10-20T08:17:16.590Z,1022.02
2022-10-20T08:18:20.795Z,1021.98
2022-10-20T08:19:26.925Z,1021.99
2022-10-20T08:20:34.370Z,1021.97
2022-10-20T08:21:37.424Z,1021.96
2022-10-20T08:22:41.612Z,1021.94
2022-10-20T08:23:45.780Z,1021.94
2022-10-20T08:24:52.994Z,1021.91
2022-10-20T08:25:56.213Z,1021.89
2022-10-20T08:27:00.307Z,1021.86
2022-10-20T08:28:04.576Z,1021.85
2022-10-20T08:29:08.868Z,1021.87
2022-10-20T08:30:23.343Z,1021.88
2022-10-20T08:31:17.232Z,1021.87
2022-10-20T08:32:21.452Z,1021.88
2022-10-20T08:33:25.667Z,1021.87
2022-10-20T08:34:29.809Z,1021.85
2022-10-20T08:35:34.091Z,1021.87
2022-10-20T08:36:38.284Z,1021.86
2022-10-20T08:37:42.475Z,1021.86
2022-10-20T08:38:46.611Z,1021.87
2022-10-20T08:39:50.854Z,1021.85
2022-10-20T08:40:55.162Z,1021.88
2022-10-20T08:42:14.686Z,1021.87
2022-10-20T08:43:03.564Z,1021.85
2022-10-20T08:44:07.759Z,1021.82
2022-10-20T08:45:11.933Z,1021.78
2022-10-20T08:46:16.173Z,1021.80
2022-10-20T08:47:20.377Z,1021.79
2022-10-20T08:48:24.578Z,1021.80
2022-10-20T08:49:28.786Z,1021.81
2022-10-20T08:50:33.002Z,1021.80
2022-10-20T08:51:37.175Z,1021.80
2022-10-20T08:52:41.399Z,1021.80
2022-10-20T08:53:45.613Z,1021.81
2022-10-20T08:54:49.825Z,1021.81
2022-10-20T08:55:54.005Z,1021.81
2022-10-20T08:56:58.220Z,1021.81
2022-10-20T08:58:02.418Z,1021.78
2022-10-20T08:59:06.583Z,1021.76
2022-10-20T09:00:10.925Z,1021.73
2022-10-20T09:01:15.290Z,1021.71
2022-10-20T09:02:19.338Z,1021.65
2022-10-20T09:03:23.556Z,1021.64
2022-10-20T09:04:27.797Z,1021.66
2022-10-20T09:05:32.069Z,1021.61
2022-10-20T09:06:36.250Z,1021.60
2022-10-20T09:07:40.574Z,1021.61
2022-10-20T09:08:44.737Z,1021.64
2022-10-20T09:09:48.897Z,1021.63
2022-10-20T09:10:53.159Z,1021.59
2022-10-20T09:11:57.371Z,1021.56
2022-10-20T09:13:01.565Z,1021.55
2022-10-20T09:14:05.790Z,1021.54
2022-10-20T09:15:10.139Z,1021.53
2022-10-20T09:16:22.112Z,1021.48
2022-10-20T09:17:18.496Z,1021.45
2022-10-20T09:18:22.687Z,1021.43
2022-10-20T09:19:26.921Z,1021.40
2022-10-20T09:20:31.119Z,1021.43
2022-10-20T09:21:35.344Z,1021.40
2022-10-20T09:22:39.570Z,1021.41
2022-10-20T09:23:43.822Z,1021.39
2022-10-20T09:24:47.988Z,1021.37
2022-10-20T09:25:52.225Z,1021.34
2022-10-20T09:27:00.232Z,1021.29
2022-10-20T09:28:00.753Z,1021.29
2022-10-20T09:29:12.917Z,1021.26
2022-10-20T09:30:09.115Z,1021.22
2022-10-20T09:31:13.353Z,1021.19
2022-10-20T09:32:44.884Z,1021.16
2022-10-20T09:33:21.773Z,1021.11
2022-10-20T09:34:26.069Z,1021.07
2022-10-20T09:35:30.257Z,1021.05
2022-10-20T09:36:34.473Z,1021.03
2022-10-20T09:37:38.699Z,1020.98
2022-10-20T09:38:42.917Z,1020.96
2022-10-20T09:39:49.272Z,1020.95
2022-10-20T09:40:51.411Z,1020.94
2022-10-20T09:41:55.718Z,1020.92
2022-10-20T09:42:59.898Z,1020.88
2022-10-20T09:44:04.120Z,1020.88
2022-10-20T09:45:08.353Z,1020.88
2022-10-20T09:46:12.571Z,1020.82
2022-10-20T09:47:16.769Z,1020.81
2022-10-20T09:48:21.034Z,1020.81
2022-10-20T09:49:25.205Z,1020.77
2022-10-20T09:50:29.505Z,1020.72
2022-10-20T09:51:33.748Z,1020.72
2022-10-20T09:52:38.311Z,1020.68
2022-10-20T09:53:42.146Z,1020.71
2022-10-20T09:54:46.373Z,1020.68
2022-10-20T09:55:50.629Z,1020.69
2022-10-20T09:56:54.919Z,1020.65
2022-10-20T09:57:59.145Z,1020.61
2022-10-20T09:59:03.388Z,1020.60
2022-10-20T10:00:25.272Z,1020.61
2022-10-20T10:01:11.927Z,1020.56
2022-10-20T10:02:16.206Z,1020.55
2022-10-20T10:03:20.347Z,1020.53
2022-10-20T10:04:24.753Z,1020.62
2022-10-20T10:05:28.887Z,1020.48
2022-10-20T10:06:33.112Z,1020.46
2022-10-20T10:07:37.386Z,1020.40
2022-10-20T10:08:41.661Z,1020.38
2022-10-20T10:09:45.822Z,1020.37
2022-10-20T10:10:50.079Z,1020.37
2022-10-20T10:11:54.299Z,1020.39
2022-10-20T10:12:58.715Z,1020.40
2022-10-20T10:14:02.844Z,1020.40
2022-10-20T10:15:07.089Z,1020.47
2022-10-20T10:16:11.333Z,1020.38
2022-10-20T10:17:15.544Z,1020.40
2022-10-20T10:18:19.761Z,1020.38
2022-10-20T10:19:23.996Z,1020.33
2022-10-20T10:20:28.295Z,1020.32
2022-10-20T10:21:32.354Z,1020.30
2022-10-20T10:22:36.960Z,1020.30
2022-10-20T10:23:40.935Z,1020.31
2022-10-20T10:24:45.140Z,1020.27
2022-10-20T10:25:49.353Z,1020.25
2022-10-20T10:26:53.586Z,1020.20
2022-10-20T10:27:57.795Z,1020.17
2022-10-20T10:29:02.022Z,1020.14
2022-10-20T10:30:06.346Z,1020.13
2022-10-20T10:31:10.523Z,1020.09
2022-10-20T10:32:14.801Z,1020.08
2022-10-20T10:33:19.031Z,1020.11
2022-10-20T10:34:23.353Z,1020.15
2022-10-20T10:35:27.575Z,1020.06
2022-10-20T10:36:31.865Z,1020.06
2022-10-20T10:37:36.132Z,1020.03
2022-10-20T10:38:40.315Z,1020.04
2022-10-20T10:39:44.552Z,1020.02
2022-10-20T10:40:48.804Z,1019.95
2022-10-20T10:41:53.111Z,1019.91
2022-10-20T10:42:57.255Z,1019.92
2022-10-20T10:44:01.522Z,1019.89
2022-10-20T10:45:05.742Z,1019.89
2022-10-20T10:46:10.017Z,1019.92
2022-10-20T10:47:14.265Z,1019.86
2022-10-20T10:48:18.478Z,1019.86
2022-10-20T10:49:22.716Z,1019.84
2022-10-20T10:50:27.093Z,1019.82
2022-10-20T10:51:31.329Z,1019.87
2022-10-20T10:52:35.571Z,1019.79
2022-10-20T10:53:39.791Z,1019.80
2022-10-20T10:54:44.156Z,1019.77
2022-10-20T10:55:49.327Z,1019.74
2022-10-20T10:56:52.580Z,1019.75
2022-10-20T10:57:56.880Z,1019.79
2022-10-20T10:59:01.205Z,1019.75
2022-10-20T11:00:05.383Z,1019.74
2022-10-20T11:01:09.817Z,1019.73
2022-10-20T11:02:13.904Z,1019.77
2022-10-20T11:03:18.272Z,1019.74
2022-10-20T11:04:22.579Z,1019.75
2022-10-20T11:05:26.737Z,1019.75
2022-10-20T11:06:31.008Z,1019.73
2022-10-20T11:07:35.702Z,1019.71
2022-10-20T11:08:39.550Z,1019.70
2022-10-20T11:09:43.751Z,1019.68
2022-10-20T11:10:47.997Z,1019.64
2022-10-20T11:11:52.286Z,1019.61
2022-10-20T11:12:56.550Z,1019.59
2022-10-20T11:14:00.785Z,1019.52
2022-10-20T11:15:05.025Z,1019.53
2022-10-20T11:16:09.327Z,1019.54
2022-10-20T11:17:13.551Z,1019.46
2022-10-20T11:18:17.807Z,1019.48
2022-10-20T11:19:22.055Z,1019.42
2022-10-20T11:20:26.315Z,1019.40
2022-10-20T11:21:30.605Z,1019.36
2022-10-20T11:22:34.859Z,1019.31
2022-10-20T11:23:39.146Z,1019.27
2022-10-20T11:24:43.444Z,1019.30
2022-10-20T11:25:47.669Z,1019.27
2022-10-20T11:26:51.906Z,1019.29
2022-10-20T11:27:56.266Z,1019.33
2022-10-20T11:29:00.443Z,1019.27
2022-10-20T11:30:04.813Z,1019.28
2022-10-20T11:31:09.015Z,1019.23
2022-10-20T11:32:13.287Z,1019.20
2022-10-20T11:33:17.557Z,1019.17
2022-10-20T11:34:21.715Z,1019.14
2022-10-20T11:35:26.030Z,1019.11
2022-10-20T11:36:30.279Z,1019.08
2022-10-20T11:37:34.954Z,1019.08
2022-10-20T11:38:38.855Z,1019.06
2022-10-20T11:39:43.137Z,1019.00
2022-10-20T11:40:48.348Z,1018.96
2022-10-20T11:41:52.221Z,1018.97
2022-10-20T11:42:56.518Z,1018.91
2022-10-20T11:44:00.806Z,1018.95
2022-10-20T11:45:05.101Z,1018.88
2022-10-20T11:46:09.343Z,1018.83
2022-10-20T11:47:13.640Z,1018.75
2022-10-20T11:48:17.870Z,1018.70
2022-10-20T11:49:22.133Z,1018.68
2022-10-20T11:50:26.426Z,1018.65
2022-10-20T11:51:30.670Z,1018.65
2022-10-20T11:52:40.944Z,1018.63
2022-10-20T11:53:43.859Z,1018.63
2022-10-20T11:54:48.054Z,1018.59
2022-10-20T11:55:52.358Z,1018.56
2022-10-20T11:56:56.570Z,1018.56
2022-10-20T11:58:01.284Z,1018.55
2022-10-20T11:59:05.136Z,1018.53
2022-10-20T12:00:09.425Z,1018.51
2022-10-20T12:01:13.799Z,1018.46
2022-10-20T12:02:18.056Z,1018.45
2022-10-20T12:03:22.257Z,1018.44
2022-10-20T12:04:26.552Z,1018.41
2022-10-20T12:05:30.823Z,1018.39
2022-10-20T12:06:35.138Z,1018.36
2022-10-20T12:07:39.489Z,1018.36
2022-10-20T12:08:43.769Z,1018.38
2022-10-20T12:09:47.946Z,1018.40
2022-10-20T12:10:52.229Z,1018.41
2022-10-20T12:11:56.508Z,1018.36
2022-10-20T12:13:00.776Z,1018.38
2022-10-20T12:14:05.032Z,1018.36
2022-10-20T12:15:09.301Z,1018.35
2022-10-20T12:16:13.596Z,1018.31
2022-10-20T12:17:17.867Z,1018.29
2022-10-20T12:18:22.162Z,1018.31
2022-10-20T12:19:26.467Z,1018.27
2022-10-20T12:20:30.798Z,1018.27
2022-10-20T12:21:35.065Z,1018.26
2022-10-20T12:22:39.580Z,1018.22
2022-10-20T12:23:43.644Z,1018.21
2022-10-20T12:24:47.996Z,1018.20
2022-10-20T12:25:52.244Z,1018.15
2022-10-20T12:26:56.519Z,1018.15
2022-10-20T12:29:05.239Z,1018.12
2022-10-20T12:30:09.583Z,1018.11
2022-10-20T12:31:13.727Z,1018.07
2022-10-20T12:32:18.049Z,1018.04
2022-10-20T12:33:22.345Z,1018.06
2022-10-20T12:34:26.597Z,1018.03
2022-10-20T12:35:30.911Z,1018.01
2022-10-20T12:36:35.222Z,1017.93
2022-10-20T12:37:42.206Z,1017.89
2022-10-20T12:38:43.771Z,1017.87
2022-10-20T12:39:48.083Z,1017.82
2022-10-20T12:40:52.337Z,1017.74
2022-10-20T12:41:56.604Z,1017.70
2022-10-20T12:43:00.859Z,1017.65
2022-10-20T12:44:05.200Z,1017.60
2022-10-20T12:45:09.477Z,1017.56
2022-10-20T12:46:13.788Z,1017.51
2022-10-20T12:47:18.108Z,1017.50
2022-10-20T12:48:22.383Z,1017.47
2022-10-20T12:49:26.703Z,1017.41
2022-10-20T12:50:30.978Z,1017.42
2022-10-20T12:51:35.280Z,1017.43
2022-10-20T12:52:39.579Z,1017.47
2022-10-20T12:53:43.958Z,1017.49
2022-10-20T12:54:48.804Z,1017.52
2022-10-20T12:55:52.502Z,1017.52
2022-10-20T12:56:56.840Z,1017.53
2022-10-20T12:58:01.133Z,1017.53
2022-10-20T12:59:05.411Z,1017.50
2022-10-20T13:00:09.716Z,1017.53